sensor_id;sensor_type;location;lat;lon;timestamp;pressure;altitude;pressure_sealevel;temperature;humidity
57050;BME280;42935;50.966;16.992;2023-04-04T00:01:16;102680.73;;;-0.99;77.71
57050;BME280;42935;50.966;16.992;2023-04-04T00:04:36;102673.46;;;-0.89;76.99
57050;BME280;42935;50.966;16.992;2023-04-04T00:07:56;102674.11;;;-0.86;76.43
57050;BME280;42935;50.966;16.992;2023-04-04T00:11:16;102668.25;;;-0.90;76.28
57050;BME280;42935;50.966;16.992;2023-04-04T00:14:38;102652.82;;;-0.98;76.11
57050;BME280;42935;50.966;16.992;2023-04-04T00:18:31;102658.05;;;-0.85;76.02
57050;BME280;42935;50.966;16.992;2023-04-04T00:21:51;102640.05;;;-0.85;75.54
57050;BME280;42935;50.966;16.992;2023-04-04T00:25:10;102650.93;;;-0.85;75.01
57050;BME280;42935;50.966;16.992;2023-04-04T00:28:28;102634.66;;;-0.94;74.24
57050;BME280;42935;50.966;16.992;2023-04-04T00:31:48;102634.11;;;-0.92;74.20
57050;BME280;42935;50.966;16.992;2023-04-04T00:35:08;102627.05;;;-0.91;73.45
57050;BME280;42935;50.966;16.992;2023-04-04T00:38:25;102635.78;;;-0.84;73.14
57050;BME280;42935;50.966;16.992;2023-04-04T00:41:48;102626.60;;;-0.94;72.48
57050;BME280;42935;50.966;16.992;2023-04-04T00:45:09;102586.29;;;-1.16;72.95
57050;BME280;42935;50.966;16.992;2023-04-04T00:48:25;102615.06;;;-0.96;72.78
57050;BME280;42935;50.966;16.992;2023-04-04T00:51:48;102634.73;;;-0.92;72.48
57050;BME280;42935;50.966;16.992;2023-04-04T00:55:08;102616.36;;;-1.03;73.14
57050;BME280;42935;50.966;16.992;2023-04-04T00:58:28;102630.12;;;-0.90;73.13
57050;BME280;42935;50.966;16.992;2023-04-04T01:01:47;102602.25;;;-1.03;73.31
57050;BME280;42935;50.966;16.992;2023-04-04T01:05:03;102615.53;;;-1.03;73.12
57050;BME280;42935;50.966;16.992;2023-04-04T01:08:24;102627.49;;;-0.97;73.10
57050;BME280;42935;50.966;16.992;2023-04-04T01:11:43;102624.09;;;-0.90;73.44
57050;BME280;42935;50.966;16.992;2023-04-04T01:15:00;102620.01;;;-0.84;72.90
57050;BME280;42935;50.966;16.992;2023-04-04T01:18:21;102616.42;;;-0.87;73.22
57050;BME280;42935;50.966;16.992;2023-04-04T01:21:47;102614.39;;;-0.85;73.26
57050;BME280;42935;50.966;16.992;2023-04-04T01:25:05;102613.24;;;-0.91;73.36
57050;BME280;42935;50.966;16.992;2023-04-04T01:28:25;102586.67;;;-1.04;73.35
57050;BME280;42935;50.966;16.992;2023-04-04T01:31:47;102595.61;;;-0.93;73.17
57050;BME280;42935;50.966;16.992;2023-04-04T01:38:56;102587.15;;;-0.94;72.85
57050;BME280;42935;50.966;16.992;2023-04-04T01:42:09;102582.94;;;-0.98;72.90
57050;BME280;42935;50.966;16.992;2023-04-04T01:45:31;102596.61;;;-0.89;72.48
57050;BME280;42935;50.966;16.992;2023-04-04T01:48:50;102593.40;;;-0.90;72.25
57050;BME280;42935;50.966;16.992;2023-04-04T01:52:12;102596.39;;;-0.91;72.14
57050;BME280;42935;50.966;16.992;2023-04-04T01:55:31;102595.55;;;-0.85;72.04
57050;BME280;42935;50.966;16.992;2023-04-04T01:58:51;102595.22;;;-0.84;72.03
57050;BME280;42935;50.966;16.992;2023-04-04T02:02:11;102594.08;;;-0.97;71.95
57050;BME280;42935;50.966;16.992;2023-04-04T02:05:28;102593.01;;;-0.98;72.50
57050;BME280;42935;50.966;16.992;2023-04-04T02:08:48;102576.77;;;-1.03;72.37
57050;BME280;42935;50.966;16.992;2023-04-04T02:12:06;102583.34;;;-1.02;72.37
57050;BME280;42935;50.966;16.992;2023-04-04T02:15:25;102569.38;;;-1.04;72.64
57050;BME280;42935;50.966;16.992;2023-04-04T02:18:42;102574.31;;;-1.09;72.61
57050;BME280;42935;50.966;16.992;2023-04-04T02:22:02;102590.09;;;-0.98;72.34
57050;BME280;42935;50.966;16.992;2023-04-04T02:25:23;102588.16;;;-1.08;71.84
57050;BME280;42935;50.966;16.992;2023-04-04T02:28:43;102578.28;;;-1.06;71.25
57050;BME280;42935;50.966;16.992;2023-04-04T02:32:04;102582.03;;;-0.92;71.30
57050;BME280;42935;50.966;16.992;2023-04-04T02:35:23;102568.38;;;-1.01;71.03
57050;BME280;42935;50.966;16.992;2023-04-04T02:38:42;102595.07;;;-0.88;70.87
57050;BME280;42935;50.966;16.992;2023-04-04T02:42:01;102598.40;;;-0.88;71.63
57050;BME280;42935;50.966;16.992;2023-04-04T02:45:18;102595.86;;;-0.77;72.22
57050;BME280;42935;50.966;16.992;2023-04-04T02:48:38;102593.10;;;-0.76;72.14
57050;BME280;42935;50.966;16.992;2023-04-04T02:51:58;102593.29;;;-0.90;72.59
57050;BME280;42935;50.966;16.992;2023-04-04T02:55:20;102581.41;;;-1.02;73.72
57050;BME280;42935;50.966;16.992;2023-04-04T02:58:44;102595.73;;;-0.98;75.06
57050;BME280;42935;50.966;16.992;2023-04-04T03:02:04;102595.55;;;-0.95;75.70
57050;BME280;42935;50.966;16.992;2023-04-04T03:05:23;102599.82;;;-1.08;75.89
57050;BME280;42935;50.966;16.992;2023-04-04T03:08:41;102585.09;;;-1.07;76.76
57050;BME280;42935;50.966;16.992;2023-04-04T03:11:56;102589.63;;;-1.09;77.58
57050;BME280;42935;50.966;16.992;2023-04-04T03:15:23;102578.08;;;-1.07;77.44
57050;BME280;42935;50.966;16.992;2023-04-04T03:18:41;102596.34;;;-1.10;78.11
57050;BME280;42935;50.966;16.992;2023-04-04T03:22:01;102594.02;;;-1.11;78.68
57050;BME280;42935;50.966;16.992;2023-04-04T03:25:21;102598.02;;;-1.00;79.14
57050;BME280;42935;50.966;16.992;2023-04-04T03:28:41;102584.39;;;-1.05;79.79
57050;BME280;42935;50.966;16.992;2023-04-04T03:32:01;102590.43;;;-1.20;78.58
57050;BME280;42935;50.966;16.992;2023-04-04T03:35:22;102595.16;;;-1.16;79.29
57050;BME280;42935;50.966;16.992;2023-04-04T03:38:42;102582.13;;;-1.31;79.56
57050;BME280;42935;50.966;16.992;2023-04-04T03:42:01;102586.98;;;-1.30;79.35
57050;BME280;42935;50.966;16.992;2023-04-04T03:45:18;102588.13;;;-1.37;78.63
57050;BME280;42935;50.966;16.992;2023-04-04T03:48:38;102585.59;;;-1.34;78.93
57050;BME280;42935;50.966;16.992;2023-04-04T03:51:58;102585.09;;;-1.33;79.56
57050;BME280;42935;50.966;16.992;2023-04-04T03:55:24;102594.97;;;-1.28;79.89
57050;BME280;42935;50.966;16.992;2023-04-04T03:58:40;102583.97;;;-1.22;79.50
57050;BME280;42935;50.966;16.992;2023-04-04T04:01:55;102596.36;;;-1.07;79.01
57050;BME280;42935;50.966;16.992;2023-04-04T04:05:15;102586.01;;;-1.31;79.63
57050;BME280;42935;50.966;16.992;2023-04-04T04:08:32;102583.64;;;-1.33;79.24
57050;BME280;42935;50.966;16.992;2023-04-04T04:11:51;102593.82;;;-1.27;79.68
57050;BME280;42935;50.966;16.992;2023-04-04T04:15:09;102578.61;;;-1.43;79.64
57050;BME280;42935;50.966;16.992;2023-04-04T04:18:41;102586.70;;;-1.37;80.05
57050;BME280;42935;50.966;16.992;2023-04-04T04:22:05;102599.84;;;-1.14;80.00
57050;BME280;42935;50.966;16.992;2023-04-04T04:25:22;102601.17;;;-1.16;79.66
57050;BME280;42935;50.966;16.992;2023-04-04T04:29:12;102590.36;;;-1.08;80.21
57050;BME280;42935;50.966;16.992;2023-04-04T04:32:32;102588.02;;;-0.98;80.54
57050;BME280;42935;50.966;16.992;2023-04-04T04:36:07;102592.20;;;-1.20;82.23
57050;BME280;42935;50.966;16.992;2023-04-04T04:39:26;102589.36;;;-1.30;82.85
57050;BME280;42935;50.966;16.992;2023-04-04T04:42:45;102591.65;;;-1.20;82.81
57050;BME280;42935;50.966;16.992;2023-04-04T04:46:05;102585.53;;;-1.35;83.94
57050;BME280;42935;50.966;16.992;2023-04-04T04:50:02;102577.06;;;-1.30;82.84
57050;BME280;42935;50.966;16.992;2023-04-04T04:53:23;102589.88;;;-1.19;82.58
57050;BME280;42935;50.966;16.992;2023-04-04T04:56:47;102582.70;;;-1.39;83.61
57050;BME280;42935;50.966;16.992;2023-04-04T05:00:09;102600.20;;;-1.35;83.61
57050;BME280;42935;50.966;16.992;2023-04-04T05:03:29;102601.05;;;-1.20;82.85
57050;BME280;42935;50.966;16.992;2023-04-04T05:06:46;102602.52;;;-1.27;82.38
57050;BME280;42935;50.966;16.992;2023-04-04T05:10:05;102605.29;;;-1.32;83.52
57050;BME280;42935;50.966;16.992;2023-04-04T05:13:22;102590.80;;;-1.19;82.81
57050;BME280;42935;50.966;16.992;2023-04-04T05:16:42;102597.12;;;-1.35;82.36
57050;BME280;42935;50.966;16.992;2023-04-04T05:20:32;102611.35;;;-1.16;82.17
57050;BME280;42935;50.966;16.992;2023-04-04T05:23:49;102595.64;;;-1.13;81.91
57050;BME280;42935;50.966;16.992;2023-04-04T05:27:09;102604.73;;;-0.99;80.74
57050;BME280;42935;50.966;16.992;2023-04-04T05:30:29;102605.09;;;-1.06;80.11
57050;BME280;42935;50.966;16.992;2023-04-04T05:33:56;102599.07;;;-1.04;79.45
57050;BME280;42935;50.966;16.992;2023-04-04T05:37:19;102582.69;;;-1.09;78.95
57050;BME280;42935;50.966;16.992;2023-04-04T05:40:39;102606.80;;;-0.85;77.83
57050;BME280;42935;50.966;16.992;2023-04-04T05:43:56;102608.09;;;-0.79;77.16
57050;BME280;42935;50.966;16.992;2023-04-04T05:47:16;102603.99;;;-0.83;75.69
57050;BME280;42935;50.966;16.992;2023-04-04T05:50:38;102603.67;;;-0.91;74.89
57050;BME280;42935;50.966;16.992;2023-04-04T05:53:59;102601.32;;;-0.71;75.08
57050;BME280;42935;50.966;16.992;2023-04-04T05:57:18;102606.10;;;-0.72;75.33
57050;BME280;42935;50.966;16.992;2023-04-04T06:00:38;102597.33;;;-0.84;76.34
57050;BME280;42935;50.966;16.992;2023-04-04T06:03:57;102608.85;;;-0.74;76.11
57050;BME280;42935;50.966;16.992;2023-04-04T06:07:21;102604.71;;;-0.82;76.00
57050;BME280;42935;50.966;16.992;2023-04-04T06:10:45;102595.47;;;-0.92;76.59
57050;BME280;42935;50.966;16.992;2023-04-04T06:14:05;102594.69;;;-0.55;76.16
57050;BME280;42935;50.966;16.992;2023-04-04T06:17:25;102573.28;;;-0.72;74.78
57050;BME280;42935;50.966;16.992;2023-04-04T06:20:45;102591.55;;;-0.77;74.66
57050;BME280;42935;50.966;16.992;2023-04-04T06:24:04;102587.43;;;-0.74;74.25
57050;BME280;42935;50.966;16.992;2023-04-04T06:27:28;102608.14;;;-0.46;72.83
57050;BME280;42935;50.966;16.992;2023-04-04T06:30:48;102597.78;;;-0.59;71.09
57050;BME280;42935;50.966;16.992;2023-04-04T06:34:12;102591.30;;;-0.47;71.10
57050;BME280;42935;50.966;16.992;2023-04-04T06:37:36;102586.56;;;-0.51;70.85
57050;BME280;42935;50.966;16.992;2023-04-04T06:40:55;102598.87;;;-0.35;70.77
57050;BME280;42935;50.966;16.992;2023-04-04T06:44:16;102591.23;;;-0.40;70.18
57050;BME280;42935;50.966;16.992;2023-04-04T06:47:31;102593.99;;;-0.35;69.28
57050;BME280;42935;50.966;16.992;2023-04-04T06:50:51;102595.13;;;-0.19;69.11
57050;BME280;42935;50.966;16.992;2023-04-04T06:54:10;102596.55;;;-0.27;68.63
57050;BME280;42935;50.966;16.992;2023-04-04T06:57:37;102595.02;;;-0.23;68.29
57050;BME280;42935;50.966;16.992;2023-04-04T07:01:00;102592.91;;;0.10;68.79
57050;BME280;42935;50.966;16.992;2023-04-04T07:04:19;102597.50;;;-0.02;67.42
57050;BME280;42935;50.966;16.992;2023-04-04T07:07:39;102597.98;;;0.12;67.25
57050;BME280;42935;50.966;16.992;2023-04-04T07:11:03;102585.90;;;0.21;67.14
57050;BME280;42935;50.966;16.992;2023-04-04T07:14:22;102593.90;;;0.16;66.43
57050;BME280;42935;50.966;16.992;2023-04-04T07:17:42;102585.31;;;0.05;65.99
57050;BME280;42935;50.966;16.992;2023-04-04T07:20:59;102594.09;;;0.10;65.24
57050;BME280;42935;50.966;16.992;2023-04-04T07:24:16;102593.82;;;0.21;65.44
57050;BME280;42935;50.966;16.992;2023-04-04T07:27:33;102598.59;;;0.23;64.51
57050;BME280;42935;50.966;16.992;2023-04-04T07:30:53;102582.25;;;0.02;63.48
57050;BME280;42935;50.966;16.992;2023-04-04T07:34:13;102596.75;;;0.30;64.44
57050;BME280;42935;50.966;16.992;2023-04-04T07:37:37;102603.59;;;0.23;63.87
57050;BME280;42935;50.966;16.992;2023-04-04T07:40:57;102594.05;;;0.34;63.79
57050;BME280;42935;50.966;16.992;2023-04-04T07:44:17;102586.09;;;0.42;63.59
57050;BME280;42935;50.966;16.992;2023-04-04T07:47:45;102590.54;;;0.31;64.14
57050;BME280;42935;50.966;16.992;2023-04-04T07:51:05;102593.09;;;0.47;64.58
57050;BME280;42935;50.966;16.992;2023-04-04T07:54:24;102586.59;;;0.46;64.46
57050;BME280;42935;50.966;16.992;2023-04-04T07:57:40;102596.86;;;0.63;63.47
57050;BME280;42935;50.966;16.992;2023-04-04T08:01:07;102591.36;;;0.39;63.84
57050;BME280;42935;50.966;16.992;2023-04-04T08:04:30;102586.85;;;0.31;64.12
57050;BME280;42935;50.966;16.992;2023-04-04T08:07:48;102599.74;;;0.23;63.25
57050;BME280;42935;50.966;16.992;2023-04-04T08:11:07;102583.74;;;0.45;61.92
57050;BME280;42935;50.966;16.992;2023-04-04T08:14:27;102589.06;;;0.31;61.73
57050;BME280;42935;50.966;16.992;2023-04-04T08:17:48;102577.72;;;0.42;61.67
57050;BME280;42935;50.966;16.992;2023-04-04T08:21:07;102596.39;;;0.64;61.88
57050;BME280;42935;50.966;16.992;2023-04-04T08:24:27;102598.09;;;0.62;61.40
57050;BME280;42935;50.966;16.992;2023-04-04T08:27:42;102592.45;;;0.71;61.30
57050;BME280;42935;50.966;16.992;2023-04-04T08:31:02;102585.20;;;0.83;62.42
57050;BME280;42935;50.966;16.992;2023-04-04T08:34:18;102592.01;;;0.97;62.33
57050;BME280;42935;50.966;16.992;2023-04-04T08:37:45;102593.95;;;0.97;61.47
57050;BME280;42935;50.966;16.992;2023-04-04T08:41:02;102593.95;;;0.80;60.71
57050;BME280;42935;50.966;16.992;2023-04-04T08:44:24;102575.28;;;0.84;60.60
57050;BME280;42935;50.966;16.992;2023-04-04T08:47:46;102585.56;;;0.91;60.42
57050;BME280;42935;50.966;16.992;2023-04-04T08:51:15;102558.25;;;0.93;60.64
57050;BME280;42935;50.966;16.992;2023-04-04T08:54:41;102580.86;;;1.20;60.87
57050;BME280;42935;50.966;16.992;2023-04-04T08:58:05;102540.66;;;1.20;60.76
57050;BME280;42935;50.966;16.992;2023-04-04T09:01:22;102511.89;;;1.14;60.16
57050;BME280;42935;50.966;16.992;2023-04-04T09:04:43;102566.62;;;1.40;60.03
57050;BME280;42935;50.966;16.992;2023-04-04T09:08:34;102566.36;;;1.68;61.15
57050;BME280;42935;50.966;16.992;2023-04-04T09:11:54;102548.45;;;1.73;60.46
57050;BME280;42935;50.966;16.992;2023-04-04T09:15:14;102555.51;;;1.62;60.48
57050;BME280;42935;50.966;16.992;2023-04-04T09:18:32;102556.75;;;1.76;59.69
57050;BME280;42935;50.966;16.992;2023-04-04T09:21:52;102560.39;;;1.74;59.42
57050;BME280;42935;50.966;16.992;2023-04-04T09:25:13;102549.63;;;1.88;59.87
57050;BME280;42935;50.966;16.992;2023-04-04T09:28:37;102553.56;;;1.86;59.89
57050;BME280;42935;50.966;16.992;2023-04-04T09:32:27;102569.32;;;1.62;58.37
57050;BME280;42935;50.966;16.992;2023-04-04T09:35:58;102566.87;;;2.07;59.04
57050;BME280;42935;50.966;16.992;2023-04-04T09:39:15;102563.52;;;2.15;57.85
57050;BME280;42935;50.966;16.992;2023-04-04T09:42:38;102566.27;;;2.36;57.47
57050;BME280;42935;50.966;16.992;2023-04-04T09:45:59;102569.96;;;2.34;57.26
57050;BME280;42935;50.966;16.992;2023-04-04T09:49:20;102571.34;;;1.96;57.09
57050;BME280;42935;50.966;16.992;2023-04-04T09:52:37;102553.05;;;1.93;57.40
57050;BME280;42935;50.966;16.992;2023-04-04T09:55:59;102566.73;;;2.11;57.36
57050;BME280;42935;50.966;16.992;2023-04-04T09:59:20;102551.08;;;2.40;56.37
57050;BME280;42935;50.966;16.992;2023-04-04T10:02:46;102510.11;;;2.31;55.94
57050;BME280;42935;50.966;16.992;2023-04-04T10:06:08;102566.11;;;2.57;55.98
57050;BME280;42935;50.966;16.992;2023-04-04T10:09:27;102556.03;;;2.77;55.68
57050;BME280;42935;50.966;16.992;2023-04-04T10:12:46;102538.97;;;2.71;56.13
57050;BME280;42935;50.966;16.992;2023-04-04T10:16:06;102545.08;;;2.92;55.90
57050;BME280;42935;50.966;16.992;2023-04-04T10:19:27;102550.12;;;2.54;56.24
57050;BME280;42935;50.966;16.992;2023-04-04T10:22:46;102532.96;;;2.58;56.23
57050;BME280;42935;50.966;16.992;2023-04-04T10:26:03;102539.26;;;2.59;56.41
57050;BME280;42935;50.966;16.992;2023-04-04T10:29:19;102543.51;;;2.71;56.34
57050;BME280;42935;50.966;16.992;2023-04-04T10:33:06;102552.36;;;2.65;56.53
57050;BME280;42935;50.966;16.992;2023-04-04T10:36:21;102489.41;;;1.97;56.73
57050;BME280;42935;50.966;16.992;2023-04-04T10:39:50;102543.40;;;2.55;56.82
57050;BME280;42935;50.966;16.992;2023-04-04T10:43:11;102536.70;;;2.22;57.36
57050;BME280;42935;50.966;16.992;2023-04-04T10:46:33;102545.77;;;2.51;56.98
57050;BME280;42935;50.966;16.992;2023-04-04T10:49:53;102531.63;;;2.29;57.50
57050;BME280;42935;50.966;16.992;2023-04-04T10:53:14;102540.91;;;1.90;57.73
57050;BME280;42935;50.966;16.992;2023-04-04T10:56:34;102540.53;;;1.69;58.38
57050;BME280;42935;50.966;16.992;2023-04-04T11:03:21;102532.05;;;2.29;57.12
57050;BME280;42935;50.966;16.992;2023-04-04T11:10:15;102522.68;;;2.31;57.23
57050;BME280;42935;50.966;16.992;2023-04-04T11:13:57;102510.88;;;1.83;56.68
57050;BME280;42935;50.966;16.992;2023-04-04T11:17:10;102520.38;;;2.18;57.23
57050;BME280;42935;50.966;16.992;2023-04-04T11:20:31;102517.98;;;1.96;57.45
57050;BME280;42935;50.966;16.992;2023-04-04T11:27:29;102499.23;;;2.46;56.63
57050;BME280;42935;50.966;16.992;2023-04-04T11:34:29;102508.16;;;2.42;55.60
57050;BME280;42935;50.966;16.992;2023-04-04T11:37:58;102491.49;;;2.49;55.37
57050;BME280;42935;50.966;16.992;2023-04-04T11:41:17;102506.58;;;2.62;56.09
57050;BME280;42935;50.966;16.992;2023-04-04T11:45:00;102503.30;;;2.12;56.25
57050;BME280;42935;50.966;16.992;2023-04-04T11:48:10;102511.37;;;1.76;58.19
57050;BME280;42935;50.966;16.992;2023-04-04T11:51:32;102510.24;;;1.71;58.11
57050;BME280;42935;50.966;16.992;2023-04-04T11:54:50;102513.30;;;1.75;59.44
57050;BME280;42935;50.966;16.992;2023-04-04T11:58:12;102514.63;;;1.91;59.11
57050;BME280;42935;50.966;16.992;2023-04-04T12:01:35;102506.88;;;1.38;58.46
57050;BME280;42935;50.966;16.992;2023-04-04T12:04:55;102503.53;;;1.55;58.54
57050;BME280;42935;50.966;16.992;2023-04-04T12:08:15;102506.40;;;1.64;59.36
57050;BME280;42935;50.966;16.992;2023-04-04T12:11:36;102500.96;;;1.59;59.60
57050;BME280;42935;50.966;16.992;2023-04-04T12:14:56;102490.73;;;1.38;59.52
57050;BME280;42935;50.966;16.992;2023-04-04T12:18:21;102500.96;;;1.39;59.92
57050;BME280;42935;50.966;16.992;2023-04-04T12:21:40;102503.75;;;1.31;59.83
57050;BME280;42935;50.966;16.992;2023-04-04T12:24:58;102493.88;;;1.48;60.27
57050;BME280;42935;50.966;16.992;2023-04-04T12:28:18;102491.17;;;1.70;59.66
57050;BME280;42935;50.966;16.992;2023-04-04T12:31:44;102490.45;;;1.45;58.96
57050;BME280;42935;50.966;16.992;2023-04-04T12:35:01;102488.91;;;1.70;60.28
57050;BME280;42935;50.966;16.992;2023-04-04T12:38:24;102466.95;;;1.59;60.68
57050;BME280;42935;50.966;16.992;2023-04-04T12:41:51;102484.98;;;1.93;61.10
57050;BME280;42935;50.966;16.992;2023-04-04T12:45:12;102475.11;;;1.93;59.35
57050;BME280;42935;50.966;16.992;2023-04-04T12:48:30;102488.73;;;1.84;59.28
57050;BME280;42935;50.966;16.992;2023-04-04T12:51:52;102430.51;;;1.65;60.13
57050;BME280;42935;50.966;16.992;2023-04-04T12:55:13;102488.67;;;1.81;60.64
57050;BME280;42935;50.966;16.992;2023-04-04T12:58:28;102485.37;;;1.73;61.34
57050;BME280;42935;50.966;16.992;2023-04-04T13:01:48;102471.94;;;1.77;61.77
57050;BME280;42935;50.966;16.992;2023-04-04T13:05:09;102484.22;;;1.84;61.88
57050;BME280;42935;50.966;16.992;2023-04-04T13:08:32;102480.59;;;1.91;61.00
57050;BME280;42935;50.966;16.992;2023-04-04T13:12:01;102481.32;;;2.04;61.51
57050;BME280;42935;50.966;16.992;2023-04-04T13:15:22;102458.55;;;1.53;61.68
57050;BME280;42935;50.966;16.992;2023-04-04T13:18:41;102465.55;;;1.64;61.83
57050;BME280;42935;50.966;16.992;2023-04-04T13:22:02;102434.98;;;1.70;61.87
57050;BME280;42935;50.966;16.992;2023-04-04T13:25:19;102473.52;;;1.96;62.03
57050;BME280;42935;50.966;16.992;2023-04-04T13:28:39;102469.69;;;2.17;60.85
57050;BME280;42935;50.966;16.992;2023-04-04T13:31:56;102469.55;;;2.39;59.62
57050;BME280;42935;50.966;16.992;2023-04-04T13:35:16;102450.15;;;2.56;57.40
57050;BME280;42935;50.966;16.992;2023-04-04T13:38:36;102452.22;;;2.56;57.73
57050;BME280;42935;50.966;16.992;2023-04-04T13:41:56;102434.59;;;2.35;56.49
57050;BME280;42935;50.966;16.992;2023-04-04T13:45:20;102459.62;;;2.52;57.03
57050;BME280;42935;50.966;16.992;2023-04-04T13:48:39;102451.77;;;2.46;57.84
57050;BME280;42935;50.966;16.992;2023-04-04T13:51:55;102465.84;;;2.33;58.09
57050;BME280;42935;50.966;16.992;2023-04-04T13:55:15;102418.34;;;1.90;58.18
57050;BME280;42935;50.966;16.992;2023-04-04T13:58:36;102448.78;;;2.21;58.60
57050;BME280;42935;50.966;16.992;2023-04-04T14:01:51;102462.71;;;2.16;58.91
57050;BME280;42935;50.966;16.992;2023-04-04T14:05:18;102466.76;;;1.98;59.41
57050;BME280;42935;50.966;16.992;2023-04-04T14:08:39;102446.01;;;1.92;59.57
57050;BME280;42935;50.966;16.992;2023-04-04T14:12:07;102400.22;;;1.61;60.00
57050;BME280;42935;50.966;16.992;2023-04-04T14:15:24;102443.45;;;1.89;60.36
57050;BME280;42935;50.966;16.992;2023-04-04T14:18:44;102455.03;;;2.10;60.72
57050;BME280;42935;50.966;16.992;2023-04-04T14:22:09;102456.73;;;2.13;60.17
57050;BME280;42935;50.966;16.992;2023-04-04T14:25:29;102447.00;;;2.06;59.22
57050;BME280;42935;50.966;16.992;2023-04-04T14:28:54;102451.43;;;2.12;57.80
57050;BME280;42935;50.966;16.992;2023-04-04T14:32:14;102452.95;;;2.13;58.12
57050;BME280;42935;50.966;16.992;2023-04-04T14:35:38;102454.02;;;2.07;58.28
57050;BME280;42935;50.966;16.992;2023-04-04T14:38:54;102447.30;;;2.08;58.75
57050;BME280;42935;50.966;16.992;2023-04-04T14:42:18;102449.44;;;1.98;58.74
57050;BME280;42935;50.966;16.992;2023-04-04T14:45:40;102450.85;;;2.02;59.85
57050;BME280;42935;50.966;16.992;2023-04-04T14:49:02;102450.63;;;2.08;58.86
57050;BME280;42935;50.966;16.992;2023-04-04T14:52:19;102447.07;;;2.11;58.13
57050;BME280;42935;50.966;16.992;2023-04-04T14:55:38;102446.66;;;2.11;57.01
57050;BME280;42935;50.966;16.992;2023-04-04T14:58:57;102403.67;;;1.82;57.33
57050;BME280;42935;50.966;16.992;2023-04-04T15:02:19;102445.64;;;2.06;57.32
57050;BME280;42935;50.966;16.992;2023-04-04T15:05:37;102446.22;;;1.87;57.78
57050;BME280;42935;50.966;16.992;2023-04-04T15:09:03;102409.85;;;1.70;58.72
57050;BME280;42935;50.966;16.992;2023-04-04T15:12:24;102443.62;;;1.86;58.84
57050;BME280;42935;50.966;16.992;2023-04-04T15:15:43;102431.49;;;1.70;58.77
57050;BME280;42935;50.966;16.992;2023-04-04T15:19:01;102439.88;;;1.72;58.94
57050;BME280;42935;50.966;16.992;2023-04-04T15:22:19;102427.30;;;1.82;59.48
57050;BME280;42935;50.966;16.992;2023-04-04T15:25:36;102425.18;;;1.86;60.12
57050;BME280;42935;50.966;16.992;2023-04-04T15:29:25;102420.66;;;1.82;60.12
57050;BME280;42935;50.966;16.992;2023-04-04T15:32:49;102425.41;;;1.86;59.45
57050;BME280;42935;50.966;16.992;2023-04-04T15:36:06;102423.16;;;1.88;59.48
57050;BME280;42935;50.966;16.992;2023-04-04T15:39:26;102413.04;;;2.00;60.41
57050;BME280;42935;50.966;16.992;2023-04-04T15:42:47;102408.34;;;3.10;59.31
57050;BME280;42935;50.966;16.992;2023-04-04T15:46:08;102405.98;;;3.49;60.32
57050;BME280;42935;50.966;16.992;2023-04-04T15:49:32;102399.12;;;4.40;58.13
57050;BME280;42935;50.966;16.992;2023-04-04T15:52:52;102403.63;;;5.59;57.40
57050;BME280;42935;50.966;16.992;2023-04-04T15:56:12;102388.12;;;5.62;54.76
57050;BME280;42935;50.966;16.992;2023-04-04T15:59:33;102399.17;;;5.28;54.71
57050;BME280;42935;50.966;16.992;2023-04-04T16:02:57;102391.23;;;5.89;53.79
57050;BME280;42935;50.966;16.992;2023-04-04T16:06:15;102381.40;;;5.75;52.18
57050;BME280;42935;50.966;16.992;2023-04-04T16:09:36;102377.31;;;5.68;50.52
57050;BME280;42935;50.966;16.992;2023-04-04T16:12:52;102383.72;;;6.32;51.19
57050;BME280;42935;50.966;16.992;2023-04-04T16:16:16;102382.88;;;6.86;50.16
57050;BME280;42935;50.966;16.992;2023-04-04T16:19:42;102386.14;;;6.53;49.69
57050;BME280;42935;50.966;16.992;2023-04-04T16:23:02;102371.38;;;6.57;50.42
57050;BME280;42935;50.966;16.992;2023-04-04T16:26:22;102380.88;;;7.06;49.26
57050;BME280;42935;50.966;16.992;2023-04-04T16:29:50;102378.01;;;6.38;47.92
57050;BME280;42935;50.966;16.992;2023-04-04T16:33:10;102377.55;;;6.07;48.97
57050;BME280;42935;50.966;16.992;2023-04-04T16:36:31;102373.85;;;5.73;49.51
57050;BME280;42935;50.966;16.992;2023-04-04T16:39:52;102376.27;;;5.29;49.74
57050;BME280;42935;50.966;16.992;2023-04-04T16:43:25;102369.95;;;5.08;50.02
57050;BME280;42935;50.966;16.992;2023-04-04T16:46:45;102368.85;;;4.40;51.52
57050;BME280;42935;50.966;16.992;2023-04-04T16:50:09;102371.25;;;3.91;52.72
57050;BME280;42935;50.966;16.992;2023-04-04T16:53:31;102366.98;;;3.70;52.96
57050;BME280;42935;50.966;16.992;2023-04-04T16:56:51;102369.38;;;3.21;54.32
57050;BME280;42935;50.966;16.992;2023-04-04T17:00:12;102359.38;;;2.87;55.34
57050;BME280;42935;50.966;16.992;2023-04-04T17:03:30;102361.39;;;2.75;56.30
57050;BME280;42935;50.966;16.992;2023-04-04T17:06:48;102364.95;;;2.52;57.11
57050;BME280;42935;50.966;16.992;2023-04-04T17:10:09;102356.47;;;2.32;57.79
57050;BME280;42935;50.966;16.992;2023-04-04T17:13:29;102365.17;;;2.56;57.80
57050;BME280;42935;50.966;16.992;2023-04-04T17:16:54;102363.55;;;2.06;58.75
57050;BME280;42935;50.966;16.992;2023-04-04T17:20:16;102363.24;;;1.92;59.46
57050;BME280;42935;50.966;16.992;2023-04-04T17:23:37;102366.45;;;1.61;59.66
57050;BME280;42935;50.966;16.992;2023-04-04T17:27:02;102360.83;;;1.32;60.21
57050;BME280;42935;50.966;16.992;2023-04-04T17:30:21;102345.47;;;1.32;60.27
57050;BME280;42935;50.966;16.992;2023-04-04T17:33:45;102366.39;;;1.19;60.48
57050;BME280;42935;50.966;16.992;2023-04-04T17:37:03;102367.83;;;1.30;60.89
57050;BME280;42935;50.966;16.992;2023-04-04T17:40:23;102350.57;;;0.57;61.91
57050;BME280;42935;50.966;16.992;2023-04-04T17:43:39;102365.41;;;0.51;62.83